createdAt,value
2023-06-30T00:03:03.054Z,2.30
2023-06-30T00:08:10.540Z,2.20
2023-06-30T00:13:18.317Z,2.40
2023-06-30T00:18:26.108Z,2.10
2023-06-30T00:23:33.905Z,2.60
2023-06-30T00:28:41.497Z,2.30
2023-06-30T00:33:48.902Z,2.40
2023-06-30T00:38:57.470Z,2.30
2023-06-30T00:44:05.115Z,2.00
2023-06-30T00:49:12.548Z,2.30
2023-06-30T00:54:20.712Z,2.40
2023-06-30T00:59:29.931Z,2.20
2023-06-30T01:04:46.044Z,2.60
2023-06-30T01:09:57.546Z,2.60
2023-06-30T01:15:07.462Z,2.30
2023-06-30T01:20:17.646Z,1.70
2023-06-30T01:25:27.988Z,2.30
2023-06-30T01:30:36.257Z,2.10
2023-06-30T01:35:44.182Z,2.80
2023-06-30T01:40:51.865Z,2.40
2023-06-30T01:46:00.208Z,3.00
2023-06-30T01:51:08.506Z,2.30
2023-06-30T01:56:16.099Z,2.40
2023-06-30T02:01:23.606Z,2.60
2023-06-30T02:06:31.193Z,2.30
2023-06-30T02:11:38.737Z,2.40
2023-06-30T02:16:46.422Z,2.90
2023-06-30T02:21:54.136Z,2.80
2023-06-30T02:27:01.635Z,2.60
2023-06-30T02:32:13.384Z,2.40
2023-06-30T02:37:21.055Z,2.40
2023-06-30T02:42:28.480Z,2.60
2023-06-30T02:47:35.910Z,3.00
2023-06-30T02:52:43.341Z,3.20
2023-06-30T02:57:51.029Z,2.60
2023-06-30T03:02:59.868Z,2.80
2023-06-30T03:08:08.267Z,2.60
2023-06-30T03:13:17.074Z,3.50
2023-06-30T03:18:24.762Z,3.50
2023-06-30T03:23:32.675Z,3.40
2023-06-30T03:28:40.293Z,3.30
2023-06-30T03:33:48.529Z,3.00
2023-06-30T03:38:56.796Z,4.00
2023-06-30T03:44:04.194Z,3.60
2023-06-30T03:49:11.554Z,3.50
2023-06-30T03:54:19.794Z,4.00
2023-06-30T03:59:27.310Z,4.00
2023-06-30T04:04:35.288Z,3.50
2023-06-30T04:09:43.143Z,3.90
2023-06-30T04:14:51.270Z,4.20
2023-06-30T04:19:59.807Z,3.80
2023-06-30T04:25:09.150Z,3.50
2023-06-30T04:30:18.153Z,3.50
2023-06-30T04:35:26.949Z,3.50
2023-06-30T04:40:34.431Z,3.10
2023-06-30T04:45:42.242Z,3.30
2023-06-30T04:50:49.950Z,3.70
2023-06-30T04:55:57.470Z,3.60
2023-06-30T05:01:06.261Z,3.40
2023-06-30T05:06:13.663Z,3.00
2023-06-30T05:11:21.077Z,2.90
2023-06-30T05:16:29.036Z,2.70
2023-06-30T05:21:36.702Z,2.70
2023-06-30T05:26:44.634Z,2.20
2023-06-30T05:31:52.048Z,2.80
2023-06-30T05:36:59.978Z,9.10
2023-06-30T05:42:08.614Z,3.80
2023-06-30T05:47:16.539Z,3.00
2023-06-30T05:52:26.659Z,2.50
2023-06-30T05:57:35.095Z,2.20
2023-06-30T06:02:42.574Z,2.10
2023-06-30T06:07:50.692Z,2.40
2023-06-30T06:12:58.127Z,2.30
2023-06-30T06:18:05.425Z,2.20
2023-06-30T06:23:13.402Z,1.90
2023-06-30T06:28:21.418Z,1.90
2023-06-30T06:33:28.928Z,2.20
2023-06-30T06:38:36.468Z,2.10
2023-06-30T06:43:44.042Z,2.00
2023-06-30T06:48:51.605Z,2.50
2023-06-30T06:53:59.344Z,2.20
2023-06-30T06:59:06.851Z,2.10
2023-06-30T07:04:14.476Z,2.60
2023-06-30T07:09:21.985Z,2.40
2023-06-30T07:14:29.544Z,2.30
2023-06-30T07:19:36.958Z,2.20
2023-06-30T07:24:44.442Z,2.30
2023-06-30T07:29:52.375Z,2.30
2023-06-30T07:34:59.859Z,2.60
2023-06-30T07:40:16.557Z,2.50
2023-06-30T07:45:24.989Z,2.60
2023-06-30T07:50:33.331Z,2.40
2023-06-30T07:55:41.165Z,2.20
2023-06-30T08:00:48.719Z,2.40
2023-06-30T08:05:57.008Z,2.60
2023-06-30T08:11:05.011Z,2.40
2023-06-30T08:16:12.897Z,2.60
2023-06-30T08:21:20.509Z,2.50
2023-06-30T08:26:28.231Z,2.30
2023-06-30T08:31:36.193Z,2.80
2023-06-30T08:36:43.820Z,2.60
2023-06-30T08:41:55.919Z,2.60
2023-06-30T08:47:05.558Z,2.20
2023-06-30T08:52:16.283Z,2.60
2023-06-30T08:57:26.772Z,3.10
2023-06-30T09:02:35.151Z,2.50
2023-06-30T09:07:48.105Z,2.20
2023-06-30T09:12:58.924Z,2.20
2023-06-30T09:18:06.689Z,2.30
2023-06-30T09:23:15.145Z,2.40
2023-06-30T09:28:22.586Z,2.30
2023-06-30T09:33:32.022Z,2.00
2023-06-30T09:38:41.278Z,2.00
2023-06-30T09:43:49.961Z,2.20
2023-06-30T09:49:03.870Z,2.70
2023-06-30T09:54:13.627Z,2.30
2023-06-30T09:59:25.542Z,2.20
2023-06-30T10:04:34.740Z,2.20
2023-06-30T10:09:47.538Z,2.30
2023-06-30T10:14:56.202Z,2.10
2023-06-30T10:20:05.162Z,2.40
2023-06-30T10:25:16.477Z,2.20
2023-06-30T10:30:25.126Z,2.80
2023-06-30T10:35:34.391Z,2.30
2023-06-30T10:40:42.031Z,2.00
2023-06-30T10:46:12.585Z,2.70
2023-06-30T10:56:30.637Z,2.10
2023-06-30T11:01:42.324Z,2.10
2023-06-30T11:07:08.425Z,2.20
2023-06-30T11:12:19.985Z,2.20
2023-06-30T11:17:28.607Z,2.40
2023-06-30T11:22:36.704Z,2.00
2023-06-30T11:27:44.632Z,1.60
2023-06-30T11:32:59.152Z,2.00
2023-06-30T11:38:09.570Z,2.00
2023-06-30T11:43:18.042Z,2.00
2023-06-30T11:48:25.527Z,2.10
2023-06-30T11:53:34.034Z,2.20
2023-06-30T11:58:45.458Z,2.40
2023-06-30T12:04:01.205Z,1.90
2023-06-30T12:09:09.552Z,1.70
2023-06-30T12:14:18.364Z,2.10
2023-06-30T12:19:31.930Z,2.40
2023-06-30T12:24:40.256Z,2.60
2023-06-30T12:29:53.045Z,2.70
2023-06-30T12:35:07.213Z,2.70
2023-06-30T12:40:16.419Z,2.80
2023-06-30T12:45:23.774Z,2.80
2023-06-30T12:50:31.420Z,2.30
2023-06-30T12:55:39.038Z,2.40
2023-06-30T13:00:46.652Z,2.50
2023-06-30T13:05:54.297Z,2.70
2023-06-30T13:11:02.128Z,2.80
2023-06-30T13:16:09.833Z,2.70
2023-06-30T13:21:18.265Z,3.20
2023-06-30T13:26:26.057Z,2.70
2023-06-30T13:31:34.294Z,2.50
2023-06-30T13:36:42.862Z,2.70
2023-06-30T13:41:51.905Z,2.70
2023-06-30T13:46:59.468Z,3.60
2023-06-30T13:52:07.861Z,2.40
2023-06-30T13:57:15.729Z,2.50
2023-06-30T14:02:23.386Z,2.40
2023-06-30T14:07:30.911Z,2.50
2023-06-30T14:12:38.429Z,2.80
2023-06-30T14:17:45.899Z,3.00
2023-06-30T14:22:53.914Z,2.50
2023-06-30T14:28:02.436Z,2.70
2023-06-30T14:33:10.182Z,3.20
2023-06-30T14:38:19.484Z,2.80
2023-06-30T14:43:30.113Z,3.00
2023-06-30T14:48:37.647Z,2.70
2023-06-30T14:53:45.062Z,2.80
2023-06-30T14:58:52.753Z,2.70
2023-06-30T15:04:00.384Z,2.90
2023-06-30T15:09:07.981Z,2.40
2023-06-30T15:14:15.950Z,2.60
2023-06-30T15:19:23.581Z,2.70
2023-06-30T15:24:31.133Z,2.60
2023-06-30T15:29:38.823Z,2.80
2023-06-30T15:34:46.225Z,2.70
2023-06-30T15:39:53.592Z,2.70
2023-06-30T15:45:02.101Z,2.90
2023-06-30T15:50:11.437Z,2.90
2023-06-30T15:55:19.834Z,2.80
2023-06-30T16:00:27.550Z,2.60
2023-06-30T16:05:35.360Z,2.80
2023-06-30T16:10:42.928Z,2.60
2023-06-30T16:15:50.546Z,2.90
2023-06-30T16:20:58.189Z,2.50
2023-06-30T16:26:05.832Z,2.80
2023-06-30T16:31:13.473Z,2.90
2023-06-30T16:36:20.958Z,2.60
2023-06-30T16:41:28.605Z,2.80
2023-06-30T16:46:36.485Z,2.90
2023-06-30T16:51:44.223Z,3.00
2023-06-30T16:56:51.709Z,2.60
2023-06-30T17:01:59.540Z,4.40
2023-06-30T17:07:07.612Z,4.10
2023-06-30T17:12:15.493Z,3.60
2023-06-30T17:17:25.584Z,3.50
2023-06-30T17:22:33.674Z,3.10
2023-06-30T17:27:41.165Z,3.10
2023-06-30T17:32:48.695Z,3.60
2023-06-30T17:37:56.496Z,4.70
2023-06-30T17:43:03.911Z,4.40
2023-06-30T17:48:12.056Z,3.70
2023-06-30T17:53:19.629Z,3.40
2023-06-30T17:58:27.228Z,3.40
2023-06-30T18:03:34.765Z,3.30
2023-06-30T18:08:42.758Z,3.10
2023-06-30T18:13:50.318Z,3.00
2023-06-30T18:18:57.582Z,3.20
2023-06-30T18:24:06.557Z,3.40
2023-06-30T18:29:14.102Z,3.60
2023-06-30T18:34:22.105Z,3.90
2023-06-30T18:39:29.769Z,3.90
2023-06-30T18:44:38.447Z,3.40
2023-06-30T18:49:46.295Z,3.60
2023-06-30T18:54:53.809Z,3.50
2023-06-30T19:00:01.972Z,4.40
2023-06-30T19:05:11.972Z,4.70
2023-06-30T19:10:20.121Z,4.20
2023-06-30T19:15:27.771Z,4.70
2023-06-30T19:20:35.295Z,4.50
2023-06-30T19:25:42.907Z,4.90
2023-06-30T19:30:52.126Z,5.20
2023-06-30T19:36:00.008Z,5.20
2023-06-30T19:41:07.466Z,5.10
2023-06-30T19:46:15.452Z,5.50
2023-06-30T19:51:23.190Z,6.30
2023-06-30T19:56:30.511Z,5.60
2023-06-30T20:01:38.080Z,6.20
2023-06-30T20:06:45.645Z,6.30
2023-06-30T20:11:53.184Z,5.70
2023-06-30T20:17:02.292Z,5.80
2023-06-30T20:22:10.414Z,5.90
2023-06-30T20:27:18.196Z,6.00
2023-06-30T20:32:26.232Z,6.10
2023-06-30T20:37:34.037Z,5.80
2023-06-30T20:42:41.766Z,6.10
2023-06-30T20:47:49.934Z,6.10
2023-06-30T20:52:58.621Z,5.70
2023-06-30T20:58:06.283Z,5.50
2023-06-30T21:03:13.822Z,5.90
2023-06-30T21:08:21.692Z,5.80
2023-06-30T21:13:29.807Z,5.90
2023-06-30T21:18:37.632Z,5.80
2023-06-30T21:23:45.218Z,5.90
2023-06-30T21:28:53.929Z,6.00
2023-06-30T21:34:01.490Z,5.70
2023-06-30T21:39:09.576Z,5.90
2023-06-30T21:44:17.480Z,6.40
2023-06-30T21:49:25.406Z,6.00
2023-06-30T21:54:47.242Z,6.00
2023-06-30T21:59:56.639Z,6.60
2023-06-30T22:05:04.446Z,6.20
2023-06-30T22:10:14.216Z,6.30
2023-06-30T22:15:23.649Z,6.00
2023-06-30T22:20:31.280Z,6.30
2023-06-30T22:25:39.045Z,6.50
2023-06-30T22:30:46.816Z,7.80
2023-06-30T22:35:55.154Z,7.60
2023-06-30T22:41:03.267Z,7.90
2023-06-30T22:46:11.077Z,7.50
2023-06-30T22:51:19.829Z,8.10
2023-06-30T22:56:27.757Z,7.90
2023-06-30T23:01:35.823Z,8.60
2023-06-30T23:06:43.318Z,7.90
2023-06-30T23:11:51.367Z,8.60
2023-06-30T23:16:59.098Z,8.40
2023-06-30T23:22:11.707Z,8.70
2023-06-30T23:27:20.296Z,7.90
2023-06-30T23:32:27.872Z,7.80
2023-06-30T23:37:35.402Z,7.20
2023-06-30T23:42:43.165Z,7.00
2023-06-30T23:47:51.478Z,6.60
2023-06-30T23:53:00.211Z,6.70
2023-06-30T23:58:08.074Z,6.30
